createdAt,value
2017-07-22T00:00:51.543Z,1005.58
2017-07-22T00:01:51.526Z,1005.56
2017-07-22T00:02:51.505Z,1005.52
2017-07-22T00:03:51.486Z,1005.56
2017-07-22T00:04:51.465Z,1005.55
2017-07-22T00:05:51.443Z,1005.53
2017-07-22T00:06:51.422Z,1005.54
2017-07-22T00:07:51.405Z,1005.5
2017-07-22T00:08:51.388Z,1005.48
2017-07-22T00:09:51.365Z,1005.47
2017-07-22T00:10:51.349Z,1005.48
2017-07-22T00:11:51.328Z,1005.48
2017-07-22T00:12:51.310Z,1005.46
2017-07-22T00:13:51.287Z,1005.48
2017-07-22T00:14:51.268Z,1005.49
2017-07-22T00:15:51.249Z,1005.45
2017-07-22T00:16:51.234Z,1005.45
2017-07-22T00:17:51.212Z,1005.44
2017-07-22T00:18:51.191Z,1005.41
2017-07-22T00:19:51.175Z,1005.43
2017-07-22T00:20:51.151Z,1005.44
2017-07-22T00:21:51.135Z,1005.41
2017-07-22T00:22:51.113Z,1005.41
2017-07-22T00:23:51.093Z,1005.43
2017-07-22T00:24:51.074Z,1005.41
2017-07-22T00:25:51.059Z,1005.42
2017-07-22T00:26:51.034Z,1005.34
2017-07-22T00:27:51.018Z,1005.39
2017-07-22T00:28:50.999Z,1005.34
2017-07-22T00:29:50.977Z,1005.34
2017-07-22T00:30:50.957Z,1005.3
2017-07-22T00:31:50.941Z,1005.31
2017-07-22T00:32:50.916Z,1005.31
2017-07-22T00:33:50.901Z,1005.33
2017-07-22T00:34:50.876Z,1005.3
2017-07-22T00:35:50.857Z,1005.31
2017-07-22T00:36:50.837Z,1005.34
2017-07-22T00:37:50.818Z,1005.31
2017-07-22T00:38:50.801Z,1005.26
2017-07-22T00:39:50.780Z,1005.27
2017-07-22T00:40:50.760Z,1005.28
2017-07-22T00:41:50.744Z,1005.23
2017-07-22T00:42:50.748Z,1005.29
2017-07-22T00:43:50.705Z,1005.24
2017-07-22T00:44:50.683Z,1005.23
2017-07-22T00:45:50.662Z,1005.23
2017-07-22T00:46:50.642Z,1005.25
2017-07-22T00:47:50.624Z,1005.21
2017-07-22T00:48:50.603Z,1005.19
2017-07-22T00:49:50.601Z,1005.18
2017-07-22T00:50:50.617Z,1005.2
2017-07-22T00:51:50.548Z,1005.16
2017-07-22T00:52:50.528Z,1005.13
2017-07-22T00:53:50.506Z,1005.16
2017-07-22T00:54:50.487Z,1005.14
2017-07-22T00:55:50.471Z,1005.12
2017-07-22T00:56:50.445Z,1005.08
2017-07-22T00:57:50.482Z,1005.11
2017-07-22T00:58:50.462Z,1005.07
2017-07-22T00:59:50.389Z,1005.04
2017-07-22T01:00:50.370Z,1005.02
2017-07-22T01:01:50.350Z,1005.05
2017-07-22T01:02:50.332Z,1005
2017-07-22T01:03:50.310Z,1005.02
2017-07-22T01:04:50.293Z,1005.02
2017-07-22T01:05:50.272Z,1005.01
2017-07-22T01:06:50.255Z,1005.02
2017-07-22T01:07:50.232Z,1005.01
2017-07-22T01:08:50.212Z,1005
2017-07-22T01:09:50.245Z,1004.97
2017-07-22T01:10:50.178Z,1004.97
2017-07-22T01:11:50.160Z,1004.97
2017-07-22T01:12:50.136Z,1004.94
2017-07-22T01:13:50.116Z,1004.96
2017-07-22T01:14:50.099Z,1004.97
2017-07-22T01:15:50.078Z,1004.96
2017-07-22T01:16:50.057Z,1004.97
2017-07-22T01:17:50.042Z,1004.96
2017-07-22T01:18:50.019Z,1004.91
2017-07-22T01:19:49.999Z,1004.92
2017-07-22T01:20:49.981Z,1004.91
2017-07-22T01:21:49.958Z,1004.89
2017-07-22T01:22:49.936Z,1004.85
2017-07-22T01:23:49.918Z,1004.85
2017-07-22T01:24:49.899Z,1004.86
2017-07-22T01:25:49.880Z,1004.86
2017-07-22T01:26:49.862Z,1004.87
2017-07-22T01:27:49.842Z,1004.84
2017-07-22T01:28:49.824Z,1004.87
2017-07-22T01:29:49.804Z,1004.86
2017-07-22T01:30:49.782Z,1004.84
2017-07-22T01:31:49.763Z,1004.88
2017-07-22T01:32:49.743Z,1004.82
2017-07-22T01:33:49.728Z,1004.79
2017-07-22T01:34:49.703Z,1004.81
2017-07-22T01:35:49.689Z,1004.8
2017-07-22T01:36:49.663Z,1004.73
2017-07-22T01:37:49.646Z,1004.72
2017-07-22T01:38:49.624Z,1004.75
2017-07-22T01:39:49.605Z,1004.77
2017-07-22T01:40:49.585Z,1004.75
2017-07-22T01:41:49.563Z,1004.76
2017-07-22T01:42:49.595Z,1004.76
2017-07-22T01:43:49.528Z,1004.76
2017-07-22T01:44:49.507Z,1004.71
2017-07-22T01:45:49.486Z,1004.69
2017-07-22T01:46:49.469Z,1004.71
2017-07-22T01:47:49.447Z,1004.73
2017-07-22T01:48:49.429Z,1004.72
2017-07-22T01:49:49.405Z,1004.72
2017-07-22T01:50:49.390Z,1004.75
2017-07-22T01:51:49.372Z,1004.72
2017-07-22T01:52:49.348Z,1004.73
2017-07-22T01:53:49.328Z,1004.73
2017-07-22T01:54:49.309Z,1004.74
2017-07-22T01:55:49.289Z,1004.72
2017-07-22T01:56:49.273Z,1004.76
2017-07-22T01:57:49.249Z,1004.72
2017-07-22T01:58:49.229Z,1004.71
2017-07-22T01:59:49.210Z,1004.72
2017-07-22T02:00:49.191Z,1004.72
2017-07-22T02:01:49.177Z,1004.69
2017-07-22T02:02:49.151Z,1004.69
2017-07-22T02:03:49.133Z,1004.66
2017-07-22T02:04:49.113Z,1004.67
2017-07-22T02:05:49.097Z,1004.69
2017-07-22T02:06:49.072Z,1004.7
2017-07-22T02:07:49.053Z,1004.72
2017-07-22T02:08:49.034Z,1004.65
2017-07-22T02:09:49.015Z,1004.65
2017-07-22T02:10:48.995Z,1004.66
2017-07-22T02:11:48.974Z,1004.62
2017-07-22T02:12:48.957Z,1004.64
2017-07-22T02:13:48.935Z,1004.64
2017-07-22T02:14:48.916Z,1004.6
2017-07-22T02:15:48.897Z,1004.65
2017-07-22T02:16:48.876Z,1004.61
2017-07-22T02:17:48.860Z,1004.63
2017-07-22T02:18:48.839Z,1004.57
2017-07-22T02:19:48.818Z,1004.56
2017-07-22T02:20:48.796Z,1004.57
2017-07-22T02:21:48.779Z,1004.59
2017-07-22T02:22:48.763Z,1004.57
2017-07-22T02:23:48.739Z,1004.55
2017-07-22T02:24:48.716Z,1004.54
2017-07-22T02:25:48.699Z,1004.53
2017-07-22T02:26:48.682Z,1004.57
2017-07-22T02:27:48.662Z,1004.62
2017-07-22T02:28:48.641Z,1004.6
2017-07-22T02:29:48.621Z,1004.63
2017-07-22T02:30:48.607Z,1004.63
2017-07-22T02:31:48.583Z,1004.64
2017-07-22T02:32:48.563Z,1004.64
2017-07-22T02:33:48.543Z,1004.71
2017-07-22T02:34:48.526Z,1004.66
2017-07-22T02:35:48.505Z,1004.72
2017-07-22T02:36:48.485Z,1004.74
2017-07-22T02:37:48.466Z,1004.81
2017-07-22T02:38:48.445Z,1004.93
2017-07-22T02:39:48.423Z,1005.2
2017-07-22T02:40:48.406Z,1005.77
2017-07-22T02:41:48.384Z,1006.01
2017-07-22T02:42:48.366Z,1005.98
2017-07-22T02:43:48.345Z,1005.76
2017-07-22T02:44:48.326Z,1005.94
2017-07-22T02:45:48.310Z,1005.91
2017-07-22T02:46:48.287Z,1005.91
2017-07-22T02:47:48.267Z,1006.01
2017-07-22T02:48:48.249Z,1005.99
2017-07-22T02:49:48.232Z,1005.98
2017-07-22T02:50:48.210Z,1006.02
2017-07-22T02:51:48.190Z,1006.02
2017-07-22T02:52:48.168Z,1006.07
2017-07-22T02:53:48.147Z,1006.05
2017-07-22T02:54:48.133Z,1006.03
2017-07-22T02:55:48.116Z,1006
2017-07-22T02:56:48.091Z,1005.94
2017-07-22T02:57:48.070Z,1005.9
2017-07-22T02:58:48.054Z,1006
2017-07-22T02:59:48.032Z,1005.99
2017-07-22T03:00:48.010Z,1005.94
2017-07-22T03:01:47.991Z,1006.01
2017-07-22T03:02:48.025Z,1005.97
2017-07-22T03:03:47.952Z,1006.04
2017-07-22T03:04:47.931Z,1006.07
2017-07-22T03:05:47.912Z,1006.05
2017-07-22T03:06:47.890Z,1006.03
2017-07-22T03:07:47.872Z,1006.03
2017-07-22T03:08:47.854Z,1006.06
2017-07-22T03:09:47.832Z,1006.05
2017-07-22T03:10:47.812Z,1006.04
2017-07-22T03:11:47.795Z,1006.1
2017-07-22T03:12:47.778Z,1006.07
2017-07-22T03:13:47.754Z,1006.06
2017-07-22T03:14:47.731Z,1006.09
2017-07-22T03:15:47.710Z,1006.09
2017-07-22T03:16:47.687Z,1006.08
2017-07-22T03:17:47.669Z,1006.08
2017-07-22T03:18:47.653Z,1006.1
2017-07-22T03:19:47.631Z,1006.11
2017-07-22T03:20:47.609Z,1006.07
2017-07-22T03:21:47.644Z,1006.12
2017-07-22T03:22:47.566Z,1006.1
2017-07-22T03:23:47.550Z,1006.12
2017-07-22T03:24:47.528Z,1006.14
2017-07-22T03:25:47.506Z,1006.12
2017-07-22T03:26:47.484Z,1006.11
2017-07-22T03:27:47.465Z,1006.12
2017-07-22T03:28:47.446Z,1006.15
2017-07-22T03:29:47.425Z,1006.21
2017-07-22T03:30:47.405Z,1006.15
2017-07-22T03:31:47.388Z,1006.3
2017-07-22T03:32:47.365Z,1006.25
2017-07-22T03:33:47.342Z,1006.27
2017-07-22T03:34:47.325Z,1006.27
2017-07-22T03:35:47.354Z,1006.24
2017-07-22T03:36:47.282Z,1006.21
2017-07-22T03:37:47.260Z,1006.26
2017-07-22T03:38:47.241Z,1006.24
2017-07-22T03:39:47.223Z,1006.26
2017-07-22T03:40:47.201Z,1006.27
2017-07-22T03:41:47.177Z,1006.25
2017-07-22T03:42:47.161Z,1006.31
2017-07-22T03:43:47.140Z,1006.27
2017-07-22T03:44:47.117Z,1006.25
2017-07-22T03:45:47.097Z,1006.29
2017-07-22T03:46:47.079Z,1006.27
2017-07-22T03:47:47.066Z,1006.27
2017-07-22T03:48:47.036Z,1006.3
2017-07-22T03:49:47.017Z,1006.28
2017-07-22T03:50:46.997Z,1006.22
2017-07-22T03:51:47.024Z,1006.28
2017-07-22T03:52:46.955Z,1006.27
2017-07-22T03:53:46.936Z,1006.27
2017-07-22T03:54:46.917Z,1006.24
2017-07-22T03:55:46.901Z,1006.24
2017-07-22T03:56:46.874Z,1006.22
2017-07-22T03:57:46.855Z,1006.24
2017-07-22T03:58:46.834Z,1006.21
2017-07-22T03:59:46.814Z,1006.21
2017-07-22T04:00:46.793Z,1006.2
2017-07-22T04:01:46.772Z,1006.18
2017-07-22T04:02:46.754Z,1006.2
2017-07-22T04:03:46.731Z,1006.18
2017-07-22T04:04:46.714Z,1006.16
2017-07-22T04:05:46.694Z,1006.1
2017-07-22T04:06:46.666Z,1006.13
2017-07-22T04:07:46.653Z,1006.11
2017-07-22T04:08:46.628Z,1006.1
2017-07-22T04:09:46.612Z,1006.12
2017-07-22T04:10:46.589Z,1006.12
2017-07-22T04:11:46.568Z,1006.15
2017-07-22T04:12:46.549Z,1006.14
2017-07-22T04:13:46.534Z,1006.11
2017-07-22T04:14:46.509Z,1006.08
2017-07-22T04:15:46.486Z,1006.13
2017-07-22T04:16:46.476Z,1006.12
2017-07-22T04:17:46.447Z,1006.11
2017-07-22T04:18:46.428Z,1006.13
2017-07-22T04:19:46.406Z,1006.12
2017-07-22T04:20:46.385Z,1006.15
2017-07-22T04:21:46.363Z,1006.16
2017-07-22T04:22:46.345Z,1006.19
2017-07-22T04:23:46.325Z,1006.19
2017-07-22T04:24:46.305Z,1006.18
2017-07-22T04:25:46.284Z,1006.22
2017-07-22T04:26:46.268Z,1006.21
2017-07-22T04:27:46.242Z,1006.18
2017-07-22T04:28:46.221Z,1006.14
2017-07-22T04:29:46.203Z,1006.17
2017-07-22T04:30:46.181Z,1006.16
2017-07-22T04:31:46.161Z,1006.06
2017-07-22T04:32:46.138Z,1006.08
2017-07-22T04:33:46.126Z,1006.08
2017-07-22T04:34:46.103Z,1006.07
2017-07-22T04:35:46.085Z,1006
2017-07-22T04:36:46.060Z,1006.02
2017-07-22T04:37:46.038Z,1006.05
2017-07-22T04:38:46.019Z,1006.05
2017-07-22T04:39:46.000Z,1006.07
2017-07-22T04:40:45.976Z,1006.06
2017-07-22T04:41:45.961Z,1006.12
2017-07-22T04:42:45.938Z,1006.12
2017-07-22T04:43:45.917Z,1006.1
2017-07-22T04:44:45.897Z,1006.14
2017-07-22T04:45:45.876Z,1006.09
2017-07-22T04:46:45.855Z,1006.02
2017-07-22T04:47:45.834Z,1006.05
2017-07-22T04:48:45.817Z,1006.02
2017-07-22T04:49:45.798Z,1006.03
2017-07-22T04:50:45.774Z,1006.03
2017-07-22T04:51:45.754Z,1006.05
2017-07-22T04:52:45.734Z,1006.03
2017-07-22T04:53:45.716Z,1006
2017-07-22T04:54:45.693Z,1005.99
2017-07-22T04:55:45.672Z,1006
2017-07-22T04:56:45.699Z,1005.96
2017-07-22T04:57:45.634Z,1005.95
2017-07-22T04:58:45.634Z,1005.95
2017-07-22T04:59:45.591Z,1005.92
2017-07-22T05:00:45.570Z,1005.9
2017-07-22T05:01:45.553Z,1005.85
2017-07-22T05:02:45.530Z,1005.85
2017-07-22T05:03:45.513Z,1005.83
2017-07-22T05:04:45.491Z,1005.8
2017-07-22T05:05:45.468Z,1005.77
2017-07-22T05:06:45.449Z,1005.78
2017-07-22T05:07:45.433Z,1005.75
2017-07-22T05:08:45.406Z,1005.79
2017-07-22T05:09:45.389Z,1005.75
2017-07-22T05:10:45.366Z,1005.72
2017-07-22T05:11:45.347Z,1005.79
2017-07-22T05:12:45.327Z,1005.74
2017-07-22T05:13:45.311Z,1005.76
2017-07-22T05:14:45.286Z,1005.69
2017-07-22T05:15:45.266Z,1005.68
2017-07-22T05:16:45.243Z,1005.68
2017-07-22T05:17:45.225Z,1005.71
2017-07-22T05:18:45.204Z,1005.71
2017-07-22T05:19:45.183Z,1005.71
2017-07-22T05:20:45.162Z,1005.72
2017-07-22T05:21:45.144Z,1005.61
2017-07-22T05:22:45.123Z,1005.66
2017-07-22T05:23:45.102Z,1005.63
2017-07-22T05:24:45.081Z,1005.66
2017-07-22T05:25:45.064Z,1005.66
2017-07-22T05:26:45.041Z,1005.66
2017-07-22T05:27:45.023Z,1005.66
2017-07-22T05:28:45.000Z,1005.68
2017-07-22T05:29:44.987Z,1005.64
2017-07-22T05:30:44.961Z,1005.69
2017-07-22T05:31:44.938Z,1005.64
2017-07-22T05:32:44.927Z,1005.68
2017-07-22T05:33:44.902Z,1005.65
2017-07-22T05:34:44.879Z,1005.65
2017-07-22T05:35:44.858Z,1005.64
2017-07-22T05:36:44.840Z,1005.7
2017-07-22T05:37:44.816Z,1005.69
2017-07-22T05:38:44.806Z,1005.76
2017-07-22T05:39:44.779Z,1005.72
2017-07-22T05:40:44.756Z,1005.78
2017-07-22T05:41:44.737Z,1005.72
2017-07-22T05:42:44.719Z,1005.74
2017-07-22T05:43:44.693Z,1005.74
2017-07-22T05:44:44.683Z,1005.8
2017-07-22T05:45:44.655Z,1005.78
2017-07-22T05:46:44.636Z,1005.77
2017-07-22T05:47:44.613Z,1005.7
2017-07-22T05:48:44.592Z,1005.71
2017-07-22T05:49:44.573Z,1005.72
2017-07-22T05:50:44.554Z,1005.67
2017-07-22T05:51:44.534Z,1005.72
2017-07-22T05:52:44.514Z,1005.74
2017-07-22T05:53:44.493Z,1005.65
2017-07-22T05:54:44.477Z,1005.69
2017-07-22T05:55:44.453Z,1005.72
2017-07-22T05:56:44.434Z,1005.71
2017-07-22T05:57:44.416Z,1005.7
2017-07-22T05:58:44.398Z,1005.71
2017-07-22T05:59:44.370Z,1005.71
2017-07-22T06:00:44.350Z,1005.73
2017-07-22T06:01:44.334Z,1005.71
2017-07-22T06:02:44.313Z,1005.7
2017-07-22T06:03:44.294Z,1005.68
2017-07-22T06:04:44.271Z,1005.67
2017-07-22T06:05:44.255Z,1005.72
2017-07-22T06:06:44.234Z,1005.72
2017-07-22T06:07:44.211Z,1005.7
2017-07-22T06:08:44.196Z,1005.73
2017-07-22T06:09:44.172Z,1005.72
2017-07-22T06:10:44.205Z,1005.73
2017-07-22T06:11:44.131Z,1005.64
2017-07-22T06:12:44.110Z,1005.75
2017-07-22T06:13:44.091Z,1005.73
2017-07-22T06:14:44.074Z,1005.67
2017-07-22T06:15:44.052Z,1005.71
2017-07-22T06:16:44.036Z,1005.71
2017-07-22T06:17:44.014Z,1005.73
2017-07-22T06:18:43.993Z,1005.67
2017-07-22T06:19:43.972Z,1005.75
2017-07-22T06:20:43.957Z,1005.76
2017-07-22T06:21:43.932Z,1005.76
2017-07-22T06:22:43.915Z,1005.8
2017-07-22T06:23:43.895Z,1005.78
2017-07-22T06:24:43.872Z,1005.79
2017-07-22T06:25:43.855Z,1005.78
2017-07-22T06:26:43.834Z,1005.79
2017-07-22T06:27:43.817Z,1005.79
2017-07-22T06:28:43.791Z,1005.75
2017-07-22T06:29:43.774Z,1005.81
2017-07-22T06:30:43.761Z,1005.84
2017-07-22T06:31:43.739Z,1005.9
2017-07-22T06:32:43.718Z,1005.9
2017-07-22T06:33:43.695Z,1005.93
2017-07-22T06:34:43.724Z,1005.95
2017-07-22T06:35:43.661Z,1005.99
2017-07-22T06:36:43.636Z,1005.99
2017-07-22T06:37:43.621Z,1005.98
2017-07-22T06:38:43.598Z,1005.98
2017-07-22T06:39:43.580Z,1005.96
2017-07-22T06:40:43.561Z,1005.98
2017-07-22T06:41:43.538Z,1005.94
2017-07-22T06:42:43.522Z,1005.9
2017-07-22T06:43:43.498Z,1005.87
2017-07-22T06:44:43.500Z,1005.88
2017-07-22T06:45:43.465Z,1005.91
2017-07-22T06:46:43.447Z,1005.93
2017-07-22T06:47:43.430Z,1005.93
2017-07-22T06:48:43.415Z,1005.98
2017-07-22T06:49:43.394Z,1006.05
2017-07-22T06:50:43.382Z,1006.08
2017-07-22T06:51:43.355Z,1006.07
2017-07-22T06:52:43.342Z,1006.11
2017-07-22T06:53:43.329Z,1006.11
2017-07-22T06:54:43.317Z,1006.07
2017-07-22T06:55:43.292Z,1006.07
2017-07-22T06:56:43.276Z,1006.11
2017-07-22T06:57:43.268Z,1006.09
2017-07-22T06:58:43.244Z,1006.09
2017-07-22T06:59:43.233Z,1006.13
2017-07-22T07:00:43.213Z,1006.12
2017-07-22T07:01:43.201Z,1006.06
2017-07-22T07:02:43.186Z,1006.12
2017-07-22T07:03:43.174Z,1006.07
2017-07-22T07:04:43.157Z,1006.1
2017-07-22T07:05:43.144Z,1006.11
2017-07-22T07:06:43.131Z,1006.1
2017-07-22T07:07:43.119Z,1006.09
2017-07-22T07:08:43.107Z,1006.11
2017-07-22T07:09:43.090Z,1006.08
2017-07-22T07:10:43.078Z,1006.1
2017-07-22T07:11:43.066Z,1006.15
2017-07-22T07:12:43.045Z,1006.2
2017-07-22T07:13:43.291Z,1006.19
2017-07-22T07:14:43.025Z,1006.09
2017-07-22T07:15:43.013Z,1006.15
2017-07-22T07:16:43.001Z,1006.17
2017-07-22T07:17:42.989Z,1006.11
2017-07-22T07:18:42.979Z,1006.15
2017-07-22T07:19:42.961Z,1006.14
2017-07-22T07:20:42.954Z,1006.17
2017-07-22T07:21:42.940Z,1006.2
2017-07-22T07:22:42.934Z,1006.23
2017-07-22T07:23:42.916Z,1006.25
2017-07-22T07:24:42.911Z,1006.21
2017-07-22T07:25:42.894Z,1006.23
2017-07-22T07:26:42.887Z,1006.21
2017-07-22T07:27:42.874Z,1006.22
2017-07-22T07:28:42.865Z,1006.26
2017-07-22T07:29:42.853Z,1006.24
2017-07-22T07:30:42.845Z,1006.24
2017-07-22T07:31:42.832Z,1006.31
2017-07-22T07:32:42.822Z,1006.33
2017-07-22T07:33:42.809Z,1006.33
2017-07-22T07:34:42.799Z,1006.33
2017-07-22T07:35:42.795Z,1006.37
2017-07-22T07:36:42.781Z,1006.31
2017-07-22T07:37:42.777Z,1006.28
2017-07-22T07:38:42.762Z,1006.29
2017-07-22T07:39:42.748Z,1006.26
2017-07-22T07:40:42.737Z,1006.25
2017-07-22T07:41:42.742Z,1006.24
2017-07-22T07:42:42.725Z,1006.2
2017-07-22T07:43:42.709Z,1006.2
2017-07-22T07:44:42.699Z,1006.16
2017-07-22T07:45:42.696Z,1006.16
2017-07-22T07:46:42.683Z,1006.14
2017-07-22T07:47:42.672Z,1006.21
2017-07-22T07:48:42.664Z,1006.19
2017-07-22T07:49:42.651Z,1006.17
2017-07-22T07:50:42.643Z,1006.06
2017-07-22T07:51:42.633Z,1006.01
2017-07-22T07:52:42.627Z,1006
2017-07-22T07:53:42.615Z,1006.03
2017-07-22T07:54:42.605Z,1005.95
2017-07-22T07:55:42.597Z,1006.01
2017-07-22T07:56:42.587Z,1006.07
2017-07-22T07:57:42.578Z,1006.11
2017-07-22T07:58:42.568Z,1006.13
2017-07-22T07:59:42.567Z,1006.18
2017-07-22T08:00:42.562Z,1006.17
2017-07-22T08:01:42.542Z,1006.19
2017-07-22T08:02:42.535Z,1006.17
2017-07-22T08:03:42.528Z,1006.21
2017-07-22T08:04:42.515Z,1006.25
2017-07-22T08:05:42.516Z,1006.24
2017-07-22T08:06:42.513Z,1006.26
2017-07-22T08:07:42.492Z,1006.3
2017-07-22T08:08:42.486Z,1006.27
2017-07-22T08:09:42.477Z,1006.3
2017-07-22T08:10:42.478Z,1006.32
2017-07-22T08:11:42.458Z,1006.34
2017-07-22T08:12:42.453Z,1006.35
2017-07-22T08:13:42.448Z,1006.37
2017-07-22T08:14:42.438Z,1006.36
2017-07-22T08:15:42.429Z,1006.42
2017-07-22T08:16:42.423Z,1006.44
2017-07-22T08:17:42.417Z,1006.42
2017-07-22T08:18:42.406Z,1006.44
2017-07-22T08:19:42.398Z,1006.4
2017-07-22T08:20:42.392Z,1006.46
2017-07-22T08:21:42.387Z,1006.52
2017-07-22T08:22:42.376Z,1006.5
2017-07-22T08:23:42.368Z,1006.47
2017-07-22T08:24:42.362Z,1006.5
2017-07-22T08:25:42.358Z,1006.45
2017-07-22T08:26:42.346Z,1006.45
2017-07-22T08:27:42.341Z,1006.51
2017-07-22T08:28:42.341Z,1006.45
2017-07-22T08:29:42.334Z,1006.45
2017-07-22T08:30:42.316Z,1006.48
2017-07-22T08:31:42.312Z,1006.52
2017-07-22T08:32:42.304Z,1006.49
2017-07-22T08:33:42.298Z,1006.45
2017-07-22T08:34:42.293Z,1006.48
2017-07-22T08:35:42.286Z,1006.43
2017-07-22T08:36:42.276Z,1006.49
2017-07-22T08:37:42.271Z,1006.46
2017-07-22T08:38:42.263Z,1006.49
2017-07-22T08:39:42.260Z,1006.49
2017-07-22T08:40:42.247Z,1006.43
2017-07-22T08:41:42.240Z,1006.5
2017-07-22T08:42:42.237Z,1006.46
2017-07-22T08:43:42.228Z,1006.44
2017-07-22T08:44:42.221Z,1006.46
2017-07-22T08:45:42.214Z,1006.46
2017-07-22T08:46:42.210Z,1006.44
2017-07-22T08:47:42.199Z,1006.4
2017-07-22T08:48:42.198Z,1006.4
2017-07-22T08:49:42.186Z,1006.37
2017-07-22T08:50:42.185Z,1006.39
2017-07-22T08:51:42.178Z,1006.39
2017-07-22T08:52:42.172Z,1006.39
2017-07-22T08:53:42.163Z,1006.47
2017-07-22T08:54:42.155Z,1006.45
2017-07-22T08:55:42.147Z,1006.49
2017-07-22T08:56:42.142Z,1006.42
2017-07-22T08:57:42.138Z,1006.52
2017-07-22T08:58:42.132Z,1006.48
2017-07-22T08:59:42.120Z,1006.51
2017-07-22T09:00:42.120Z,1006.53
2017-07-22T09:01:42.113Z,1006.59
2017-07-22T09:02:42.102Z,1006.58
2017-07-22T09:03:42.099Z,1006.55
2017-07-22T09:04:42.090Z,1006.58
2017-07-22T09:05:42.087Z,1006.53
2017-07-22T09:06:42.079Z,1006.57
2017-07-22T09:07:42.074Z,1006.55
2017-07-22T09:08:42.066Z,1006.51
2017-07-22T09:09:42.062Z,1006.52
2017-07-22T09:10:42.058Z,1006.46
2017-07-22T09:11:42.047Z,1006.48
2017-07-22T09:12:42.040Z,1006.42
2017-07-22T09:13:42.035Z,1006.47
2017-07-22T09:14:42.028Z,1006.46
2017-07-22T09:15:42.026Z,1006.46
2017-07-22T09:16:42.015Z,1006.47
2017-07-22T09:17:42.014Z,1006.42
2017-07-22T09:18:42.007Z,1006.46
2017-07-22T09:19:41.997Z,1006.41
2017-07-22T09:20:41.999Z,1006.44
2017-07-22T09:21:41.991Z,1006.48
2017-07-22T09:22:41.983Z,1006.44
2017-07-22T09:23:41.981Z,1006.47
2017-07-22T09:24:41.975Z,1006.43
2017-07-22T09:25:41.967Z,1006.4
2017-07-22T09:26:41.963Z,1006.43
2017-07-22T09:27:41.953Z,1006.45
2017-07-22T09:28:41.952Z,1006.42
2017-07-22T09:29:41.943Z,1006.4
2017-07-22T09:30:41.940Z,1006.38
2017-07-22T09:31:41.933Z,1006.49
2017-07-22T09:32:41.929Z,1006.48
2017-07-22T09:33:41.921Z,1006.4
2017-07-22T09:34:41.923Z,1006.41
2017-07-22T09:35:41.911Z,1006.42
2017-07-22T09:36:41.904Z,1006.39
2017-07-22T09:37:41.899Z,1006.42
2017-07-22T09:38:41.895Z,1006.44
2017-07-22T09:39:41.888Z,1006.42
2017-07-22T09:40:41.885Z,1006.44
2017-07-22T09:41:41.873Z,1006.41
2017-07-22T09:42:41.868Z,1006.38
2017-07-22T09:43:41.860Z,1006.4
2017-07-22T09:44:41.859Z,1006.44
2017-07-22T09:45:41.853Z,1006.46
2017-07-22T09:46:41.845Z,1006.41
2017-07-22T09:47:41.842Z,1006.47
2017-07-22T09:48:41.835Z,1006.44
2017-07-22T09:49:41.833Z,1006.44
2017-07-22T09:50:41.822Z,1006.43
2017-07-22T09:51:41.815Z,1006.41
2017-07-22T09:52:41.810Z,1006.47
2017-07-22T09:53:41.804Z,1006.48
2017-07-22T09:54:41.795Z,1006.48
2017-07-22T09:55:41.787Z,1006.49
2017-07-22T09:56:41.786Z,1006.41
2017-07-22T09:57:41.780Z,1006.45
2017-07-22T09:58:41.772Z,1006.46
2017-07-22T09:59:41.763Z,1006.47
2017-07-22T10:00:41.756Z,1006.44
2017-07-22T10:01:41.751Z,1006.45
2017-07-22T10:02:41.745Z,1006.46
2017-07-22T10:03:41.742Z,1006.42
2017-07-22T10:04:41.728Z,1006.36
2017-07-22T10:05:41.732Z,1006.32
2017-07-22T10:06:41.718Z,1006.36
2017-07-22T10:07:41.717Z,1006.4
2017-07-22T10:08:41.703Z,1006.34
2017-07-22T10:09:41.699Z,1006.31
2017-07-22T10:10:41.691Z,1006.28
2017-07-22T10:11:41.685Z,1006.33
2017-07-22T10:12:41.678Z,1006.32
2017-07-22T10:13:41.678Z,1006.34
2017-07-22T10:14:41.668Z,1006.35
2017-07-22T10:15:41.662Z,1006.33
2017-07-22T10:16:41.662Z,1006.31
2017-07-22T10:17:41.654Z,1006.29
2017-07-22T10:18:41.648Z,1006.26
2017-07-22T10:19:41.640Z,1006.26
2017-07-22T10:20:41.639Z,1006.28
2017-07-22T10:21:41.628Z,1006.28
2017-07-22T10:22:41.621Z,1006.28
2017-07-22T10:23:41.616Z,1006.31
2017-07-22T10:24:41.609Z,1006.3
2017-07-22T10:25:41.607Z,1006.36
2017-07-22T10:26:41.601Z,1006.29
2017-07-22T10:27:41.592Z,1006.28
2017-07-22T10:28:41.888Z,1006.29
2017-07-22T10:29:41.582Z,1006.31
2017-07-22T10:30:41.576Z,1006.29
2017-07-22T10:31:41.572Z,1006.37
2017-07-22T10:32:41.566Z,1006.33
2017-07-22T10:33:41.568Z,1006.32
2017-07-22T10:34:41.551Z,1006.36
2017-07-22T10:35:41.544Z,1006.31
2017-07-22T10:36:41.540Z,1006.29
2017-07-22T10:37:41.535Z,1006.3
2017-07-22T10:38:41.529Z,1006.35
2017-07-22T10:39:41.525Z,1006.31
2017-07-22T10:40:41.520Z,1006.31
2017-07-22T10:41:41.515Z,1006.35
2017-07-22T10:42:41.511Z,1006.37
2017-07-22T10:43:41.506Z,1006.45
2017-07-22T10:44:41.502Z,1006.43
2017-07-22T10:45:41.498Z,1006.44
2017-07-22T10:46:41.490Z,1006.38
2017-07-22T10:47:41.487Z,1006.35
2017-07-22T10:48:41.475Z,1006.39
2017-07-22T10:49:41.477Z,1006.3
2017-07-22T10:50:41.475Z,1006.31
2017-07-22T10:51:41.467Z,1006.35
2017-07-22T10:52:41.461Z,1006.31
2017-07-22T10:53:41.460Z,1006.36
2017-07-22T10:54:41.447Z,1006.38
2017-07-22T10:55:41.439Z,1006.38
2017-07-22T10:56:41.433Z,1006.27
2017-07-22T10:57:41.433Z,1006.35
2017-07-22T10:58:41.423Z,1006.3
2017-07-22T10:59:41.412Z,1006.26
2017-07-22T11:00:41.414Z,1006.27
2017-07-22T11:01:41.405Z,1006.26
2017-07-22T11:02:41.397Z,1006.32
2017-07-22T11:03:41.388Z,1006.36
2017-07-22T11:04:41.391Z,1006.28
2017-07-22T11:05:41.379Z,1006.35
2017-07-22T11:06:41.369Z,1006.33
2017-07-22T11:07:41.366Z,1006.3
2017-07-22T11:08:41.357Z,1006.32
2017-07-22T11:09:41.354Z,1006.34
2017-07-22T11:10:41.346Z,1006.32
2017-07-22T11:11:41.346Z,1006.37
2017-07-22T11:12:41.339Z,1006.38
2017-07-22T11:13:41.337Z,1006.33
2017-07-22T11:14:41.330Z,1006.28
2017-07-22T11:15:41.325Z,1006.3
2017-07-22T11:16:41.319Z,1006.26
2017-07-22T11:17:41.317Z,1006.24
2017-07-22T11:18:41.306Z,1006.26
2017-07-22T11:19:41.300Z,1006.26
2017-07-22T11:20:41.295Z,1006.21
2017-07-22T11:21:41.290Z,1006.17
2017-07-22T11:22:41.282Z,1006.26
2017-07-22T11:23:41.275Z,1006.2
2017-07-22T11:24:41.268Z,1006.17
2017-07-22T11:25:41.262Z,1006.18
2017-07-22T11:26:41.254Z,1006.15
2017-07-22T11:27:41.247Z,1006.18
2017-07-22T11:28:41.238Z,1006.24
2017-07-22T11:29:41.229Z,1006.29
2017-07-22T11:30:41.220Z,1006.32
2017-07-22T11:31:41.218Z,1006.31
2017-07-22T11:32:41.207Z,1006.3
2017-07-22T11:33:41.193Z,1006.27
2017-07-22T11:34:41.182Z,1006.21
2017-07-22T11:35:41.175Z,1006.23
2017-07-22T11:36:41.165Z,1006.18
2017-07-22T11:37:41.152Z,1006.12
2017-07-22T11:38:41.148Z,1006.14
2017-07-22T11:39:41.128Z,1006.11
2017-07-22T11:40:41.118Z,1006.05
2017-07-22T11:41:41.106Z,1006.07
2017-07-22T11:42:41.097Z,1006.04
2017-07-22T11:43:41.186Z,1006.05
2017-07-22T11:44:41.074Z,1005.99
2017-07-22T11:45:41.061Z,1005.97
2017-07-22T11:46:41.050Z,1006.04
2017-07-22T11:47:41.034Z,1006
2017-07-22T11:48:41.023Z,1006.03
2017-07-22T11:49:41.011Z,1006.03
2017-07-22T11:50:41.049Z,1005.98
2017-07-22T11:51:40.985Z,1006.02
2017-07-22T11:52:40.966Z,1006.05
2017-07-22T11:53:40.959Z,1006.04
2017-07-22T11:54:40.948Z,1006.06
2017-07-22T11:55:40.930Z,1006.13
2017-07-22T11:56:40.918Z,1006.1
2017-07-22T11:57:41.156Z,1006.13
2017-07-22T11:58:40.894Z,1006.11
2017-07-22T11:59:40.878Z,1006.11
2017-07-22T12:00:40.871Z,1006.08
2017-07-22T12:01:40.849Z,1006.09
2017-07-22T12:02:40.836Z,1006.04
2017-07-22T12:03:40.827Z,1006.09
2017-07-22T12:04:40.810Z,1006.12
2017-07-22T12:05:40.794Z,1006.12
2017-07-22T12:06:40.781Z,1006.12
2017-07-22T12:07:40.766Z,1006.1
2017-07-22T12:08:40.753Z,1006.07